| time (UTC) | temp F | wind direction | speed knots | gust knots | rain 1hr in | rain 24hr in | rain mn in | humidity % | barometer mb |
| 20260507064624 | 37 | 194 | 0.0 | 5.2 | 0.04 | 0.18 | 0.18 | 94 | 1016.5 |
| 20260507063025 | 37 | 216 | 0.0 | 0.9 | 0.04 | 0.17 | 0.17 | 94 | 1016.5 |
| 20260507061522 | 37 | 216 | 0.0 | 0.0 | 0.02 | 0.15 | 0.15 | 94 | 1016.2 |
| 20260507060019 | 37 | 216 | 0.0 | 1.7 | 0.04 | 0.15 | 0.15 | 94 | 1016.0 |
| 20260507054518 | 37 | 216 | 0.0 | 0.9 | 0.03 | 0.14 | 0.14 | 94 | 1015.9 |
| 20260507053017 | 38 | 216 | 0.0 | 0.9 | 0.04 | 0.13 | 0.13 | 94 | 1015.8 |
| 20260507051519 | 37 | 134 | 0.0 | 0.0 | 0.07 | 0.13 | 0.13 | 93 | 1015.6 |
| 20260507050014 | 37 | 134 | 0.0 | 1.7 | 0.07 | 0.11 | 0.11 | 93 | 1015.5 |
| 20260507044514 | 37 | 133 | 0.0 | 3.5 | 0.08 | 0.11 | 0.11 | 92 | 1015.5 |
| 20260507043015 | 37 | 151 | 0.9 | 2.6 | 0.07 | 0.10 | 0.10 | 92 | 1015.7 |
| 20260507041513 | 38 | 169 | 0.0 | 6.1 | 0.04 | 0.07 | 0.07 | 91 | 1015.7 |
| 20260507040011 | 39 | 219 | 1.7 | 8.7 | 0.02 | 0.05 | 0.05 | 90 | 1015.6 |
| 20260507034506 | 40 | 210 | 1.7 | 6.1 | 0.02 | 0.03 | 0.03 | 88 | 1015.1 |
| 20260507033002 | 41 | 103 | 0.9 | 1.7 | 0.03 | 0.03 | 0.03 | 90 | 1014.9 |
| 20260507031559 | 41 | 101 | 0.0 | 1.7 | 0.03 | 0.03 | 0.03 | 88 | 1014.6 |
| 20260507030059 | 41 | 105 | 0.0 | 1.7 | 0.03 | 0.03 | 0.03 | 89 | 1014.7 |
| 20260507024600 | 42 | 254 | 0.0 | 2.6 | 0.02 | 0.02 | 0.02 | 87 | 1014.6 |
| 20260507023055 | 43 | 209 | 0.0 | 0.9 | 0.01 | 0.01 | 0.01 | 83 | 1014.6 |
| 20260507021554 | 43 | 202 | 0.9 | 3.5 | 0.00 | 0.00 | 0.00 | 76 | 1014.4 |
| 20260507020054 | 43 | 186 | 0.9 | 2.6 | 0.00 | 0.00 | 0.00 | 78 | 1014.2 |
| 20260507014550 | 43 | 184 | 0.0 | 1.7 | 0.00 | 0.00 | 0.00 | 80 | 1014.3 |
| 20260507013048 | 43 | 183 | 0.0 | 2.6 | 0.00 | 0.00 | 0.00 | 82 | 1014.2 |
| 20260507011548 | 43 | 178 | 0.0 | 2.6 | 0.00 | 0.00 | 0.00 | 81 | 1014.2 |
| 20260507010104 | 43 | 202 | 0.9 | 7.0 | 0.00 | 0.00 | 0.00 | 79 | 1014.2 |
| 20260507004543 | 43 | 264 | 0.9 | 5.2 | 0.00 | 0.00 | 0.00 | 81 | 1014.1 |
| 20260507003043 | 43 | 176 | 1.7 | 4.3 | 0.00 | 0.00 | 0.00 | 81 | 1014.1 |
| 20260507001549 | 43 | 223 | 1.7 | 6.1 | 0.00 | 0.00 | 0.00 | 80 | 1014.0 |
| 20260507000041 | 43 | 249 | 1.7 | 6.1 | 0.00 | 0.00 | 0.00 | 79 | 1013.9 |
| 20260506234540 | 43 | 138 | 1.7 | 4.3 | 0.00 | 0.00 | 0.00 | 78 | 1013.7 |
| 20260506233041 | 44 | 252 | 1.7 | 6.1 | 0.00 | 0.00 | 0.00 | 78 | 1013.6 |
| 20260506231539 | 44 | 231 | 0.9 | 11.3 | 0.00 | 0.00 | 0.00 | 75 | 1013.5 |
| 20260506230043 | 44 | 234 | 1.7 | 7.8 | 0.00 | 0.00 | 0.00 | 71 | 1013.4 |
| 20260506224536 | 44 | 253 | 2.6 | 7.8 | 0.00 | 0.00 | 0.00 | 74 | 1013.4 |
| 20260506223042 | 43 | 196 | 1.7 | 7.0 | 0.00 | 0.00 | 0.00 | 73 | 1013.3 |
| 20260506221543 | 43 | 227 | 0.9 | 6.1 | 0.00 | 0.00 | 0.00 | 74 | 1013.1 |
| 20260506220044 | 44 | 188 | 1.7 | 9.6 | 0.00 | 0.00 | 0.00 | 71 | 1013.1 |
| 20260506214535 | 46 | 336 | 0.9 | 4.3 | 0.00 | 0.00 | 0.00 | 71 | 1012.9 |
| 20260506213032 | 46 | 338 | 0.9 | 3.5 | 0.00 | 0.00 | 0.00 | 72 | 1012.8 |
| 20260506211534 | 45 | 333 | 0.9 | 3.5 | 0.00 | 0.00 | 0.00 | 71 | 1012.7 |
| 20260506210030 | 45 | 288 | 0.0 | 3.5 | 0.00 | 0.00 | 0.00 | 73 | 1012.6 |
| 20260506204529 | 45 | 267 | 1.7 | 5.2 | 0.00 | 0.00 | 0.00 | 74 | 1012.5 |
| 20260506203029 | 45 | 265 | 1.7 | 5.2 | 0.00 | 0.00 | 0.00 | 74 | 1012.4 |
| 20260506201528 | 44 | 283 | 0.9 | 3.5 | 0.00 | 0.00 | 0.00 | 75 | 1012.3 |
| 20260506200027 | 45 | 318 | 0.0 | 5.2 | 0.00 | 0.00 | 0.00 | 74 | 1012.3 |
| 20260506194525 | 44 | 275 | 1.7 | 5.2 | 0.00 | 0.00 | 0.00 | 75 | 1012.2 |
| 20260506193031 | 44 | 323 | 1.7 | 4.3 | 0.00 | 0.00 | 0.00 | 76 | 1012.2 |
| 20260506191526 | 44 | 316 | 0.9 | 4.3 | 0.00 | 0.00 | 0.00 | 77 | 1012.1 |
| 20260506190025 | 43 | 252 | 0.9 | 5.2 | 0.00 | 0.00 | 0.00 | 76 | 1012.1 |
| 20260506184526 | 42 | 315 | 0.0 | 2.6 | 0.00 | 0.00 | 0.00 | 77 | 1012.1 |
| 20260506183023 | 42 | 336 | 0.9 | 3.5 | 0.00 | 0.00 | 0.00 | 78 | 1012.1 |
| 20260506181522 | 41 | 328 | 0.9 | 3.5 | 0.00 | 0.00 | 0.00 | 79 | 1012.0 |
| 20260506180022 | 41 | 280 | 0.0 | 2.6 | 0.00 | 0.00 | 0.00 | 80 | 1011.9 |
| 20260506174520 | 41 | 260 | 0.0 | 2.6 | 0.00 | 0.00 | 0.00 | 80 | 1011.8 |
| 20260506173021 | 40 | 355 | 0.0 | 2.6 | 0.00 | 0.00 | 0.00 | 81 | 1011.8 |
| 20260506171520 | 39 | 20 | 0.0 | 1.7 | 0.00 | 0.00 | 0.00 | 81 | 1011.6 |
| 20260506170017 | 39 | 17 | 0.0 | 0.9 | 0.00 | 0.00 | 0.00 | 81 | 1011.6 |
| 20260506164516 | 39 | 17 | 0.0 | 2.6 | 0.00 | 0.00 | 0.00 | 82 | 1011.3 |
| 20260506163015 | 38 | 18 | 0.0 | 0.9 | 0.00 | 0.00 | 0.00 | 83 | 1011.3 |
| 20260506161515 | 38 | 18 | 0.0 | 0.0 | 0.00 | 0.00 | 0.00 | 83 | 1011.1 |
| 20260506160015 | 37 | 18 | 0.0 | 0.0 | 0.00 | 0.00 | 0.00 | 84 | 1011.1 |
| 20260506154513 | 37 | 18 | 0.0 | 0.0 | 0.00 | 0.00 | 0.00 | 83 | 1010.9 |
| 20260506153012 | 37 | 18 | 0.0 | 0.0 | 0.00 | 0.00 | 0.00 | 83 | 1011.0 |
| 20260506151512 | 37 | 18 | 0.0 | 0.0 | 0.00 | 0.00 | 0.00 | 83 | 1010.9 |
| 20260506150011 | 37 | 18 | 0.0 | 0.0 | 0.00 | 0.00 | 0.00 | 82 | 1010.7 |
| 20260506144523 | 37 | 18 | 0.0 | 0.9 | 0.00 | 0.00 | 0.00 | 82 | 1010.6 |
| 20260506143010 | 37 | 18 | 0.0 | 1.7 | 0.00 | 0.00 | 0.00 | 81 | 1010.7 |
| 20260506141508 | 37 | 18 | 0.0 | 1.7 | 0.00 | 0.00 | 0.00 | 80 | 1010.6 |
| 20260506140008 | 38 | 18 | 0.0 | 2.6 | 0.00 | 0.00 | 0.00 | 79 | 1010.6 |
| 20260506134507 | 38 | 18 | 0.0 | 0.9 | 0.00 | 0.00 | 0.00 | 78 | 1010.6 |
| 20260506133006 | 38 | 18 | 0.0 | 0.9 | 0.00 | 0.00 | 0.00 | 78 | 1010.6 |
| 20260506131507 | 37 | 18 | 0.0 | 2.6 | 0.00 | 0.00 | 0.00 | 78 | 1010.5 |
| 20260506130005 | 37 | 49 | 0.0 | 1.7 | 0.00 | 0.00 | 0.00 | 79 | 1010.4 |
| 20260506124505 | 37 | 50 | 0.0 | 0.9 | 0.00 | 0.00 | 0.00 | 79 | 1010.4 |
| 20260506123005 | 37 | 54 | 0.0 | 2.6 | 0.00 | 0.00 | 0.00 | 78 | 1010.4 |
| 20260506121504 | 37 | 93 | 0.0 | 1.7 | 0.00 | 0.00 | 0.00 | 79 | 1010.3 |
| 20260506120003 | 37 | 200 | 0.0 | 1.7 | 0.00 | 0.00 | 0.00 | 80 | 1010.3 |
| 20260506114607 | 37 | 200 | 0.0 | 1.7 | 0.00 | 0.00 | 0.00 | 80 | 1010.2 |
| 20260506113058 | 37 | 200 | 0.0 | 2.6 | 0.00 | 0.00 | 0.00 | 80 | 1010.2 |
| 20260506111556 | 37 | 200 | 0.0 | 1.7 | 0.00 | 0.00 | 0.00 | 79 | 1010.2 |
| 20260506110055 | 37 | 200 | 0.0 | 0.9 | 0.00 | 0.00 | 0.00 | 80 | 1010.1 |
| 20260506104603 | 37 | 200 | 0.0 | 1.7 | 0.00 | 0.00 | 0.00 | 81 | 1010.0 |
| 20260506103057 | 38 | 200 | 0.0 | 1.7 | 0.00 | 0.00 | 0.00 | 81 | 1009.9 |
| 20260506101550 | 38 | 201 | 0.0 | 1.7 | 0.00 | 0.00 | 0.00 | 80 | 1009.9 |
| 20260506100103 | 39 | 188 | 0.9 | 2.6 | 0.00 | 0.00 | 0.00 | 76 | 1009.8 |
| 20260506094545 | 40 | 220 | 0.0 | 2.6 | 0.00 | 0.00 | 0.00 | 72 | 1009.8 |
| 20260506093045 | 40 | 194 | 0.0 | 4.3 | 0.00 | 0.00 | 0.00 | 70 | 1009.7 |
| 20260506091540 | 41 | 249 | 0.0 | 4.3 | 0.00 | 0.00 | 0.00 | 68 | 1009.7 |
| 20260506090041 | 41 | 250 | 0.9 | 4.3 | 0.00 | 0.00 | 0.00 | 66 | 1009.4 |
| 20260506084538 | 42 | 127 | 0.0 | 9.6 | 0.00 | 0.00 | 0.00 | 64 | 1009.4 |
| 20260506083035 | 42 | 140 | 0.0 | 3.5 | 0.00 | 0.00 | 0.00 | 65 | 1009.3 |
| 20260506081533 | 42 | 145 | 0.0 | 7.0 | 0.00 | 0.00 | 0.00 | 64 | 1009.2 |
| 20260506073028 | 42 | 123 | 6.1 | 13.0 | 0.00 | 0.00 | 0.00 | 65 | 1008.7 |
| 20260506071525 | 42 | 122 | 4.3 | 13.9 | 0.00 | 0.00 | 0.00 | 64 | 1008.7 |